sensor_id;sensor_type;location;lat;lon;timestamp;P1;durP1;ratioP1;P2;durP2;ratioP2
10458;SDS011;5277;48.722;8.736;2023-04-21T00:01:30;26.13;;;18.70;;
10458;SDS011;5277;48.722;8.736;2023-04-21T00:03:56;29.27;;;19.17;;
10458;SDS011;5277;48.722;8.736;2023-04-21T00:06:23;25.00;;;18.90;;
10458;SDS011;5277;48.722;8.736;2023-04-21T00:08:54;27.60;;;19.17;;
10458;SDS011;5277;48.722;8.736;2023-04-21T00:11:22;29.00;;;19.73;;
10458;SDS011;5277;48.722;8.736;2023-04-21T00:13:48;31.03;;;20.43;;
10458;SDS011;5277;48.722;8.736;2023-04-21T00:16:13;33.07;;;20.57;;
10458;SDS011;5277;48.722;8.736;2023-04-21T00:18:39;34.70;;;22.10;;
10458;SDS011;5277;48.722;8.736;2023-04-21T00:21:04;32.83;;;21.23;;
10458;SDS011;5277;48.722;8.736;2023-04-21T00:23:30;30.60;;;21.77;;
10458;SDS011;5277;48.722;8.736;2023-04-21T00:25:55;34.80;;;21.83;;
10458;SDS011;5277;48.722;8.736;2023-04-21T00:28:21;32.07;;;21.00;;
10458;SDS011;5277;48.722;8.736;2023-04-21T00:30:47;32.10;;;21.03;;
10458;SDS011;5277;48.722;8.736;2023-04-21T00:33:13;32.60;;;20.53;;
10458;SDS011;5277;48.722;8.736;2023-04-21T00:35:39;30.87;;;20.40;;
10458;SDS011;5277;48.722;8.736;2023-04-21T00:38:04;28.13;;;20.13;;
10458;SDS011;5277;48.722;8.736;2023-04-21T00:40:30;32.23;;;20.20;;
10458;SDS011;5277;48.722;8.736;2023-04-21T00:42:55;28.53;;;18.77;;
10458;SDS011;5277;48.722;8.736;2023-04-21T00:45:21;28.67;;;20.20;;
10458;SDS011;5277;48.722;8.736;2023-04-21T00:47:47;28.70;;;19.23;;
10458;SDS011;5277;48.722;8.736;2023-04-21T00:50:12;26.87;;;17.83;;
10458;SDS011;5277;48.722;8.736;2023-04-21T00:52:39;26.80;;;19.07;;
10458;SDS011;5277;48.722;8.736;2023-04-21T00:55:05;27.17;;;17.83;;
10458;SDS011;5277;48.722;8.736;2023-04-21T00:57:31;28.13;;;18.77;;
10458;SDS011;5277;48.722;8.736;2023-04-21T00:59:57;27.73;;;18.70;;
10458;SDS011;5277;48.722;8.736;2023-04-21T01:02:22;25.93;;;18.27;;
10458;SDS011;5277;48.722;8.736;2023-04-21T01:04:48;27.87;;;19.17;;
10458;SDS011;5277;48.722;8.736;2023-04-21T01:07:14;29.03;;;19.37;;
10458;SDS011;5277;48.722;8.736;2023-04-21T01:09:43;29.00;;;19.67;;
10458;SDS011;5277;48.722;8.736;2023-04-21T01:12:10;28.67;;;19.23;;
10458;SDS011;5277;48.722;8.736;2023-04-21T01:14:37;30.30;;;20.40;;
10458;SDS011;5277;48.722;8.736;2023-04-21T01:17:04;29.80;;;18.73;;
10458;SDS011;5277;48.722;8.736;2023-04-21T01:19:31;25.80;;;18.30;;
10458;SDS011;5277;48.722;8.736;2023-04-21T01:22:01;26.57;;;18.20;;
10458;SDS011;5277;48.722;8.736;2023-04-21T01:24:41;27.67;;;17.37;;
10458;SDS011;5277;48.722;8.736;2023-04-21T01:27:12;26.13;;;18.03;;
10458;SDS011;5277;48.722;8.736;2023-04-21T01:29:40;25.73;;;17.30;;
10458;SDS011;5277;48.722;8.736;2023-04-21T01:32:07;31.93;;;18.90;;
10458;SDS011;5277;48.722;8.736;2023-04-21T01:34:35;29.87;;;20.07;;
10458;SDS011;5277;48.722;8.736;2023-04-21T01:37:02;28.97;;;18.23;;
10458;SDS011;5277;48.722;8.736;2023-04-21T01:39:28;23.97;;;17.10;;
10458;SDS011;5277;48.722;8.736;2023-04-21T01:41:54;26.93;;;18.37;;
10458;SDS011;5277;48.722;8.736;2023-04-21T01:44:22;25.77;;;17.63;;
10458;SDS011;5277;48.722;8.736;2023-04-21T01:46:49;25.47;;;17.40;;
10458;SDS011;5277;48.722;8.736;2023-04-21T01:49:14;27.40;;;17.87;;
10458;SDS011;5277;48.722;8.736;2023-04-21T01:51:40;30.87;;;18.30;;
10458;SDS011;5277;48.722;8.736;2023-04-21T01:54:05;25.83;;;17.97;;
10458;SDS011;5277;48.722;8.736;2023-04-21T01:56:31;27.87;;;17.23;;
10458;SDS011;5277;48.722;8.736;2023-04-21T01:58:57;26.73;;;17.47;;
10458;SDS011;5277;48.722;8.736;2023-04-21T02:01:22;25.83;;;16.77;;
10458;SDS011;5277;48.722;8.736;2023-04-21T02:03:48;28.60;;;17.43;;
10458;SDS011;5277;48.722;8.736;2023-04-21T02:06:13;24.40;;;16.17;;
10458;SDS011;5277;48.722;8.736;2023-04-21T02:08:39;24.17;;;15.60;;
10458;SDS011;5277;48.722;8.736;2023-04-21T02:11:06;24.40;;;15.97;;
10458;SDS011;5277;48.722;8.736;2023-04-21T02:13:31;22.37;;;15.33;;
10458;SDS011;5277;48.722;8.736;2023-04-21T02:15:57;25.13;;;16.03;;
10458;SDS011;5277;48.722;8.736;2023-04-21T02:18:23;24.20;;;16.63;;
10458;SDS011;5277;48.722;8.736;2023-04-21T02:20:48;25.87;;;16.40;;
10458;SDS011;5277;48.722;8.736;2023-04-21T02:23:14;24.57;;;15.60;;
10458;SDS011;5277;48.722;8.736;2023-04-21T02:25:40;27.57;;;15.40;;
10458;SDS011;5277;48.722;8.736;2023-04-21T02:28:05;26.07;;;15.67;;
10458;SDS011;5277;48.722;8.736;2023-04-21T02:30:32;23.53;;;15.17;;
10458;SDS011;5277;48.722;8.736;2023-04-21T02:33:00;26.00;;;15.50;;
10458;SDS011;5277;48.722;8.736;2023-04-21T02:35:26;24.13;;;15.10;;
10458;SDS011;5277;48.722;8.736;2023-04-21T02:37:51;21.17;;;14.67;;
10458;SDS011;5277;48.722;8.736;2023-04-21T02:40:17;24.47;;;15.60;;
10458;SDS011;5277;48.722;8.736;2023-04-21T02:42:44;24.73;;;14.47;;
10458;SDS011;5277;48.722;8.736;2023-04-21T02:45:09;25.80;;;14.93;;
10458;SDS011;5277;48.722;8.736;2023-04-21T02:47:35;22.13;;;14.23;;
10458;SDS011;5277;48.722;8.736;2023-04-21T02:50:01;23.47;;;14.90;;
10458;SDS011;5277;48.722;8.736;2023-04-21T02:52:28;21.03;;;14.27;;
10458;SDS011;5277;48.722;8.736;2023-04-21T02:54:53;21.07;;;13.93;;
10458;SDS011;5277;48.722;8.736;2023-04-21T02:57:19;20.63;;;14.10;;
10458;SDS011;5277;48.722;8.736;2023-04-21T02:59:44;22.07;;;13.20;;
10458;SDS011;5277;48.722;8.736;2023-04-21T03:02:10;21.67;;;14.60;;
10458;SDS011;5277;48.722;8.736;2023-04-21T03:04:36;19.97;;;12.70;;
10458;SDS011;5277;48.722;8.736;2023-04-21T03:07:01;20.93;;;14.03;;
10458;SDS011;5277;48.722;8.736;2023-04-21T03:09:27;20.77;;;14.30;;
10458;SDS011;5277;48.722;8.736;2023-04-21T03:11:53;21.13;;;13.77;;
10458;SDS011;5277;48.722;8.736;2023-04-21T03:14:18;19.70;;;14.03;;
10458;SDS011;5277;48.722;8.736;2023-04-21T03:16:44;19.30;;;13.13;;
10458;SDS011;5277;48.722;8.736;2023-04-21T03:19:11;19.63;;;13.47;;
10458;SDS011;5277;48.722;8.736;2023-04-21T03:21:36;19.30;;;13.23;;
10458;SDS011;5277;48.722;8.736;2023-04-21T03:24:03;20.43;;;13.57;;
10458;SDS011;5277;48.722;8.736;2023-04-21T03:26:29;19.97;;;12.10;;
10458;SDS011;5277;48.722;8.736;2023-04-21T03:28:55;17.63;;;12.20;;
10458;SDS011;5277;48.722;8.736;2023-04-21T03:31:20;18.73;;;12.90;;
10458;SDS011;5277;48.722;8.736;2023-04-21T03:33:46;17.47;;;12.67;;
10458;SDS011;5277;48.722;8.736;2023-04-21T03:36:12;19.63;;;12.90;;
10458;SDS011;5277;48.722;8.736;2023-04-21T03:38:38;22.23;;;13.53;;
10458;SDS011;5277;48.722;8.736;2023-04-21T03:41:03;17.87;;;12.60;;
10458;SDS011;5277;48.722;8.736;2023-04-21T03:43:34;18.70;;;12.33;;
10458;SDS011;5277;48.722;8.736;2023-04-21T03:46:00;17.67;;;12.17;;
10458;SDS011;5277;48.722;8.736;2023-04-21T03:48:26;18.30;;;12.77;;
10458;SDS011;5277;48.722;8.736;2023-04-21T03:50:52;17.43;;;12.03;;
10458;SDS011;5277;48.722;8.736;2023-04-21T03:53:18;20.87;;;12.83;;
10458;SDS011;5277;48.722;8.736;2023-04-21T03:55:43;17.13;;;11.90;;
10458;SDS011;5277;48.722;8.736;2023-04-21T03:58:12;17.83;;;12.40;;
10458;SDS011;5277;48.722;8.736;2023-04-21T04:00:39;17.53;;;12.17;;
10458;SDS011;5277;48.722;8.736;2023-04-21T04:03:05;19.07;;;12.40;;
10458;SDS011;5277;48.722;8.736;2023-04-21T04:05:31;18.70;;;12.77;;
10458;SDS011;5277;48.722;8.736;2023-04-21T04:07:57;21.80;;;13.97;;
10458;SDS011;5277;48.722;8.736;2023-04-21T04:10:23;20.30;;;13.60;;
10458;SDS011;5277;48.722;8.736;2023-04-21T04:12:48;19.33;;;13.07;;
10458;SDS011;5277;48.722;8.736;2023-04-21T04:15:14;23.77;;;14.40;;
10458;SDS011;5277;48.722;8.736;2023-04-21T04:17:40;23.13;;;14.60;;
10458;SDS011;5277;48.722;8.736;2023-04-21T04:20:06;22.83;;;14.27;;
10458;SDS011;5277;48.722;8.736;2023-04-21T04:22:32;24.33;;;14.80;;
10458;SDS011;5277;48.722;8.736;2023-04-21T04:24:58;21.67;;;14.17;;
10458;SDS011;5277;48.722;8.736;2023-04-21T04:27:25;22.97;;;14.53;;
10458;SDS011;5277;48.722;8.736;2023-04-21T04:29:52;21.93;;;14.00;;
10458;SDS011;5277;48.722;8.736;2023-04-21T04:32:18;22.83;;;14.67;;
10458;SDS011;5277;48.722;8.736;2023-04-21T04:34:43;21.00;;;13.27;;
10458;SDS011;5277;48.722;8.736;2023-04-21T04:37:09;21.47;;;13.77;;
10458;SDS011;5277;48.722;8.736;2023-04-21T04:39:35;26.77;;;15.10;;
10458;SDS011;5277;48.722;8.736;2023-04-21T04:42:01;23.77;;;14.60;;
10458;SDS011;5277;48.722;8.736;2023-04-21T04:44:29;20.80;;;13.73;;
10458;SDS011;5277;48.722;8.736;2023-04-21T04:46:55;23.33;;;14.90;;
10458;SDS011;5277;48.722;8.736;2023-04-21T04:49:21;21.03;;;14.53;;
10458;SDS011;5277;48.722;8.736;2023-04-21T04:51:47;19.93;;;14.03;;
10458;SDS011;5277;48.722;8.736;2023-04-21T04:54:12;23.33;;;14.90;;
10458;SDS011;5277;48.722;8.736;2023-04-21T04:56:38;21.27;;;13.33;;
10458;SDS011;5277;48.722;8.736;2023-04-21T04:59:04;21.47;;;14.00;;
10458;SDS011;5277;48.722;8.736;2023-04-21T05:01:30;20.47;;;13.80;;
10458;SDS011;5277;48.722;8.736;2023-04-21T05:03:56;28.07;;;19.37;;
10458;SDS011;5277;48.722;8.736;2023-04-21T05:06:24;19.77;;;13.73;;
10458;SDS011;5277;48.722;8.736;2023-04-21T05:08:50;19.60;;;13.17;;
10458;SDS011;5277;48.722;8.736;2023-04-21T05:11:17;19.93;;;13.60;;
10458;SDS011;5277;48.722;8.736;2023-04-21T05:13:42;22.07;;;14.87;;
10458;SDS011;5277;48.722;8.736;2023-04-21T05:16:08;20.43;;;13.40;;
10458;SDS011;5277;48.722;8.736;2023-04-21T05:18:34;18.33;;;12.93;;
10458;SDS011;5277;48.722;8.736;2023-04-21T05:20:59;19.63;;;13.70;;
10458;SDS011;5277;48.722;8.736;2023-04-21T05:23:25;17.70;;;13.23;;
10458;SDS011;5277;48.722;8.736;2023-04-21T05:25:51;18.33;;;12.90;;
10458;SDS011;5277;48.722;8.736;2023-04-21T05:28:16;26.30;;;19.37;;
10458;SDS011;5277;48.722;8.736;2023-04-21T05:30:42;22.40;;;14.93;;
10458;SDS011;5277;48.722;8.736;2023-04-21T05:33:08;21.70;;;15.40;;
10458;SDS011;5277;48.722;8.736;2023-04-21T05:35:34;17.93;;;12.87;;
10458;SDS011;5277;48.722;8.736;2023-04-21T05:38:00;16.63;;;12.43;;
10458;SDS011;5277;48.722;8.736;2023-04-21T05:40:25;18.70;;;14.17;;
10458;SDS011;5277;48.722;8.736;2023-04-21T05:42:51;18.70;;;13.47;;
10458;SDS011;5277;48.722;8.736;2023-04-21T05:45:17;16.07;;;11.87;;
10458;SDS011;5277;48.722;8.736;2023-04-21T05:47:42;16.60;;;11.93;;
10458;SDS011;5277;48.722;8.736;2023-04-21T05:50:11;16.43;;;12.03;;
10458;SDS011;5277;48.722;8.736;2023-04-21T05:52:36;18.30;;;12.10;;
10458;SDS011;5277;48.722;8.736;2023-04-21T05:55:02;16.67;;;12.50;;
10458;SDS011;5277;48.722;8.736;2023-04-21T05:57:28;18.43;;;13.00;;
10458;SDS011;5277;48.722;8.736;2023-04-21T05:59:54;17.17;;;11.87;;
10458;SDS011;5277;48.722;8.736;2023-04-21T06:02:20;16.67;;;12.43;;
10458;SDS011;5277;48.722;8.736;2023-04-21T06:04:46;15.13;;;11.20;;
10458;SDS011;5277;48.722;8.736;2023-04-21T06:07:12;17.07;;;11.40;;
10458;SDS011;5277;48.722;8.736;2023-04-21T06:09:38;14.60;;;10.87;;
10458;SDS011;5277;48.722;8.736;2023-04-21T06:12:05;15.20;;;11.20;;
10458;SDS011;5277;48.722;8.736;2023-04-21T06:14:31;15.50;;;10.67;;
10458;SDS011;5277;48.722;8.736;2023-04-21T06:16:56;20.20;;;11.43;;
10458;SDS011;5277;48.722;8.736;2023-04-21T06:19:22;14.40;;;10.40;;
10458;SDS011;5277;48.722;8.736;2023-04-21T06:21:48;15.27;;;10.93;;
10458;SDS011;5277;48.722;8.736;2023-04-21T06:24:14;15.47;;;10.90;;
10458;SDS011;5277;48.722;8.736;2023-04-21T06:26:40;15.47;;;10.90;;
10458;SDS011;5277;48.722;8.736;2023-04-21T06:29:05;14.93;;;11.17;;
10458;SDS011;5277;48.722;8.736;2023-04-21T06:31:31;15.40;;;10.73;;
10458;SDS011;5277;48.722;8.736;2023-04-21T06:33:57;15.70;;;10.80;;
10458;SDS011;5277;48.722;8.736;2023-04-21T06:36:22;16.63;;;11.07;;
10458;SDS011;5277;48.722;8.736;2023-04-21T06:38:48;15.90;;;11.47;;
10458;SDS011;5277;48.722;8.736;2023-04-21T06:41:14;15.00;;;11.00;;
10458;SDS011;5277;48.722;8.736;2023-04-21T06:43:39;14.53;;;10.60;;
10458;SDS011;5277;48.722;8.736;2023-04-21T06:46:05;15.13;;;10.37;;
10458;SDS011;5277;48.722;8.736;2023-04-21T06:48:31;14.87;;;11.10;;
10458;SDS011;5277;48.722;8.736;2023-04-21T06:50:57;17.00;;;11.93;;
10458;SDS011;5277;48.722;8.736;2023-04-21T06:53:22;14.03;;;10.57;;
10458;SDS011;5277;48.722;8.736;2023-04-21T06:55:48;16.70;;;11.33;;
10458;SDS011;5277;48.722;8.736;2023-04-21T06:58:14;17.90;;;11.37;;
10458;SDS011;5277;48.722;8.736;2023-04-21T07:00:39;13.47;;;10.23;;
10458;SDS011;5277;48.722;8.736;2023-04-21T07:03:05;13.80;;;10.60;;
10458;SDS011;5277;48.722;8.736;2023-04-21T07:05:31;15.07;;;10.63;;
10458;SDS011;5277;48.722;8.736;2023-04-21T07:07:56;15.13;;;10.63;;
10458;SDS011;5277;48.722;8.736;2023-04-21T07:10:25;13.90;;;10.17;;
10458;SDS011;5277;48.722;8.736;2023-04-21T07:12:51;19.93;;;10.77;;
10458;SDS011;5277;48.722;8.736;2023-04-21T07:15:21;14.97;;;9.93;;
10458;SDS011;5277;48.722;8.736;2023-04-21T07:17:46;15.17;;;10.60;;
10458;SDS011;5277;48.722;8.736;2023-04-21T07:20:12;15.88;;;9.98;;
10458;SDS011;5277;48.722;8.736;2023-04-21T07:22:38;13.60;;;10.18;;
10458;SDS011;5277;48.722;8.736;2023-04-21T07:25:04;16.10;;;9.55;;
10458;SDS011;5277;48.722;8.736;2023-04-21T07:27:31;14.23;;;9.50;;
10458;SDS011;5277;48.722;8.736;2023-04-21T07:29:57;12.60;;;9.02;;
10458;SDS011;5277;48.722;8.736;2023-04-21T07:32:22;11.82;;;8.88;;
10458;SDS011;5277;48.722;8.736;2023-04-21T07:34:48;12.50;;;9.60;;
10458;SDS011;5277;48.722;8.736;2023-04-21T07:37:14;12.23;;;8.50;;
10458;SDS011;5277;48.722;8.736;2023-04-21T07:39:40;12.65;;;8.15;;
10458;SDS011;5277;48.722;8.736;2023-04-21T07:42:06;11.27;;;7.80;;
10458;SDS011;5277;48.722;8.736;2023-04-21T07:44:32;9.35;;;7.80;;
10458;SDS011;5277;48.722;8.736;2023-04-21T07:46:58;9.10;;;7.57;;
10458;SDS011;5277;48.722;8.736;2023-04-21T07:49:24;10.00;;;7.85;;
10458;SDS011;5277;48.722;8.736;2023-04-21T07:51:50;9.90;;;7.10;;
10458;SDS011;5277;48.722;8.736;2023-04-21T07:54:15;7.53;;;6.53;;
10458;SDS011;5277;48.722;8.736;2023-04-21T07:56:41;8.13;;;6.82;;
10458;SDS011;5277;48.722;8.736;2023-04-21T07:59:07;7.97;;;6.22;;
10458;SDS011;5277;48.722;8.736;2023-04-21T08:01:32;9.50;;;6.05;;
10458;SDS011;5277;48.722;8.736;2023-04-21T08:03:58;8.05;;;6.00;;
10458;SDS011;5277;48.722;8.736;2023-04-21T08:06:24;7.35;;;6.00;;
10458;SDS011;5277;48.722;8.736;2023-04-21T08:08:49;9.38;;;6.05;;
10458;SDS011;5277;48.722;8.736;2023-04-21T08:11:15;9.27;;;6.03;;
10458;SDS011;5277;48.722;8.736;2023-04-21T08:13:41;6.93;;;5.95;;
10458;SDS011;5277;48.722;8.736;2023-04-21T08:16:06;6.85;;;5.43;;
10458;SDS011;5277;48.722;8.736;2023-04-21T08:18:32;6.93;;;5.80;;
10458;SDS011;5277;48.722;8.736;2023-04-21T08:20:58;10.43;;;5.38;;
10458;SDS011;5277;48.722;8.736;2023-04-21T08:23:23;8.20;;;5.68;;
10458;SDS011;5277;48.722;8.736;2023-04-21T08:25:49;9.23;;;5.60;;
10458;SDS011;5277;48.722;8.736;2023-04-21T08:28:15;8.18;;;5.72;;
10458;SDS011;5277;48.722;8.736;2023-04-21T08:30:41;5.60;;;4.88;;
10458;SDS011;5277;48.722;8.736;2023-04-21T08:33:06;8.15;;;5.30;;
10458;SDS011;5277;48.722;8.736;2023-04-21T08:35:37;6.50;;;4.85;;
10458;SDS011;5277;48.722;8.736;2023-04-21T08:38:03;5.88;;;5.00;;
10458;SDS011;5277;48.722;8.736;2023-04-21T08:40:34;6.43;;;4.88;;
10458;SDS011;5277;48.722;8.736;2023-04-21T08:43:02;6.10;;;4.97;;
10458;SDS011;5277;48.722;8.736;2023-04-21T08:45:29;5.68;;;4.80;;
10458;SDS011;5277;48.722;8.736;2023-04-21T08:47:56;7.95;;;4.55;;
10458;SDS011;5277;48.722;8.736;2023-04-21T08:50:25;5.72;;;4.82;;
10458;SDS011;5277;48.722;8.736;2023-04-21T08:52:53;6.07;;;4.72;;
10458;SDS011;5277;48.722;8.736;2023-04-21T08:55:21;5.18;;;4.45;;
10458;SDS011;5277;48.722;8.736;2023-04-21T08:57:51;5.20;;;4.30;;
10458;SDS011;5277;48.722;8.736;2023-04-21T09:00:17;5.32;;;4.38;;
10458;SDS011;5277;48.722;8.736;2023-04-21T09:02:52;4.53;;;3.92;;
10458;SDS011;5277;48.722;8.736;2023-04-21T09:05:29;4.13;;;3.60;;
10458;SDS011;5277;48.722;8.736;2023-04-21T09:10:44;8.05;;;4.50;;
10458;SDS011;5277;48.722;8.736;2023-04-21T09:13:12;5.28;;;3.92;;
10458;SDS011;5277;48.722;8.736;2023-04-21T09:18:42;4.13;;;3.58;;
10458;SDS011;5277;48.722;8.736;2023-04-21T09:23:39;4.78;;;4.00;;
10458;SDS011;5277;48.722;8.736;2023-04-21T09:26:05;5.78;;;3.83;;
10458;SDS011;5277;48.722;8.736;2023-04-21T09:28:31;3.83;;;3.42;;
10458;SDS011;5277;48.722;8.736;2023-04-21T09:30:57;8.13;;;3.83;;
10458;SDS011;5277;48.722;8.736;2023-04-21T09:33:23;5.22;;;3.65;;
10458;SDS011;5277;48.722;8.736;2023-04-21T09:35:48;3.97;;;3.58;;
10458;SDS011;5277;48.722;8.736;2023-04-21T09:38:20;8.40;;;3.80;;
10458;SDS011;5277;48.722;8.736;2023-04-21T09:40:56;6.10;;;3.67;;
10458;SDS011;5277;48.722;8.736;2023-04-21T09:43:22;4.28;;;3.40;;
10458;SDS011;5277;48.722;8.736;2023-04-21T09:45:48;3.63;;;3.22;;
10458;SDS011;5277;48.722;8.736;2023-04-21T09:48:16;5.10;;;3.30;;
10458;SDS011;5277;48.722;8.736;2023-04-21T09:50:42;3.47;;;3.08;;
10458;SDS011;5277;48.722;8.736;2023-04-21T09:53:11;3.92;;;3.30;;
10458;SDS011;5277;48.722;8.736;2023-04-21T09:55:40;3.47;;;3.17;;
10458;SDS011;5277;48.722;8.736;2023-04-21T09:58:07;4.13;;;3.40;;
10458;SDS011;5277;48.722;8.736;2023-04-21T10:00:37;4.32;;;3.47;;
10458;SDS011;5277;48.722;8.736;2023-04-21T10:03:04;3.25;;;2.95;;
10458;SDS011;5277;48.722;8.736;2023-04-21T10:05:34;3.42;;;3.13;;
10458;SDS011;5277;48.722;8.736;2023-04-21T10:08:00;3.20;;;2.90;;
10458;SDS011;5277;48.722;8.736;2023-04-21T10:10:27;3.38;;;3.08;;
10458;SDS011;5277;48.722;8.736;2023-04-21T10:12:55;3.80;;;2.78;;
10458;SDS011;5277;48.722;8.736;2023-04-21T10:15:29;2.97;;;2.72;;
10458;SDS011;5277;48.722;8.736;2023-04-21T10:23:35;4.47;;;2.75;;
10458;SDS011;5277;48.722;8.736;2023-04-21T10:28:40;3.45;;;3.13;;
10458;SDS011;5277;48.722;8.736;2023-04-21T10:31:35;3.30;;;3.00;;
10458;SDS011;5277;48.722;8.736;2023-04-21T10:36:33;3.78;;;2.47;;
10458;SDS011;5277;48.722;8.736;2023-04-21T10:39:06;4.05;;;2.83;;
10458;SDS011;5277;48.722;8.736;2023-04-21T10:41:32;2.97;;;2.67;;
10458;SDS011;5277;48.722;8.736;2023-04-21T10:43:59;2.50;;;2.30;;
10458;SDS011;5277;48.722;8.736;2023-04-21T10:49:05;2.70;;;2.35;;
10458;SDS011;5277;48.722;8.736;2023-04-21T10:54:47;2.40;;;2.20;;
10458;SDS011;5277;48.722;8.736;2023-04-21T10:57:41;2.28;;;1.77;;
10458;SDS011;5277;48.722;8.736;2023-04-21T11:00:08;2.05;;;1.85;;
10458;SDS011;5277;48.722;8.736;2023-04-21T11:02:35;2.05;;;1.80;;
10458;SDS011;5277;48.722;8.736;2023-04-21T11:05:01;3.40;;;1.73;;
10458;SDS011;5277;48.722;8.736;2023-04-21T11:07:27;2.30;;;2.10;;
10458;SDS011;5277;48.722;8.736;2023-04-21T11:10:00;2.67;;;1.63;;
10458;SDS011;5277;48.722;8.736;2023-04-21T11:12:30;4.25;;;1.70;;
10458;SDS011;5277;48.722;8.736;2023-04-21T11:14:58;2.78;;;1.77;;
10458;SDS011;5277;48.722;8.736;2023-04-21T11:17:26;2.90;;;1.83;;
10458;SDS011;5277;48.722;8.736;2023-04-21T11:19:52;1.60;;;1.50;;
10458;SDS011;5277;48.722;8.736;2023-04-21T11:22:20;3.03;;;1.77;;
10458;SDS011;5277;48.722;8.736;2023-04-21T11:24:50;1.98;;;1.77;;
10458;SDS011;5277;48.722;8.736;2023-04-21T11:27:20;3.45;;;2.00;;
10458;SDS011;5277;48.722;8.736;2023-04-21T11:29:46;4.72;;;1.70;;
10458;SDS011;5277;48.722;8.736;2023-04-21T11:32:14;1.95;;;1.75;;
10458;SDS011;5277;48.722;8.736;2023-04-21T11:34:41;3.20;;;1.70;;
10458;SDS011;5277;48.722;8.736;2023-04-21T11:37:08;2.90;;;1.90;;
10458;SDS011;5277;48.722;8.736;2023-04-21T11:39:34;2.10;;;1.90;;
10458;SDS011;5277;48.722;8.736;2023-04-21T11:42:00;2.47;;;1.63;;
10458;SDS011;5277;48.722;8.736;2023-04-21T11:46:56;2.88;;;1.90;;
10458;SDS011;5277;48.722;8.736;2023-04-21T11:49:24;1.80;;;1.70;;
10458;SDS011;5277;48.722;8.736;2023-04-21T11:51:54;2.42;;;1.88;;
10458;SDS011;5277;48.722;8.736;2023-04-21T11:54:20;2.45;;;1.80;;
10458;SDS011;5277;48.722;8.736;2023-04-21T11:56:48;2.13;;;1.55;;
10458;SDS011;5277;48.722;8.736;2023-04-21T11:59:15;1.67;;;1.58;;
10458;SDS011;5277;48.722;8.736;2023-04-21T12:01:47;2.05;;;1.63;;
10458;SDS011;5277;48.722;8.736;2023-04-21T12:04:18;1.98;;;1.73;;
10458;SDS011;5277;48.722;8.736;2023-04-21T12:06:45;2.20;;;1.60;;
10458;SDS011;5277;48.722;8.736;2023-04-21T12:09:25;2.00;;;1.90;;
10458;SDS011;5277;48.722;8.736;2023-04-21T12:11:52;1.83;;;1.40;;
10458;SDS011;5277;48.722;8.736;2023-04-21T12:14:20;2.10;;;1.92;;
10458;SDS011;5277;48.722;8.736;2023-04-21T12:16:53;1.77;;;1.67;;
10458;SDS011;5277;48.722;8.736;2023-04-21T12:22:05;2.13;;;1.70;;
10458;SDS011;5277;48.722;8.736;2023-04-21T12:24:36;4.65;;;1.60;;
10458;SDS011;5277;48.722;8.736;2023-04-21T12:27:03;3.38;;;1.65;;
10458;SDS011;5277;48.722;8.736;2023-04-21T12:29:29;2.17;;;1.73;;
10458;SDS011;5277;48.722;8.736;2023-04-21T12:31:55;1.83;;;1.50;;
10458;SDS011;5277;48.722;8.736;2023-04-21T12:34:20;2.97;;;1.80;;
10458;SDS011;5277;48.722;8.736;2023-04-21T12:36:46;2.08;;;1.80;;
10458;SDS011;5277;48.722;8.736;2023-04-21T12:39:12;1.80;;;1.70;;
10458;SDS011;5277;48.722;8.736;2023-04-21T12:41:41;2.67;;;2.03;;
10458;SDS011;5277;48.722;8.736;2023-04-21T12:44:06;2.33;;;1.83;;
10458;SDS011;5277;48.722;8.736;2023-04-21T12:46:32;1.77;;;1.67;;
10458;SDS011;5277;48.722;8.736;2023-04-21T12:48:58;2.22;;;2.03;;
10458;SDS011;5277;48.722;8.736;2023-04-21T12:51:24;1.75;;;1.65;;
10458;SDS011;5277;48.722;8.736;2023-04-21T12:53:50;3.30;;;1.95;;
10458;SDS011;5277;48.722;8.736;2023-04-21T12:56:15;2.70;;;2.08;;
10458;SDS011;5277;48.722;8.736;2023-04-21T12:58:42;1.80;;;1.70;;
10458;SDS011;5277;48.722;8.736;2023-04-21T13:01:07;2.00;;;1.80;;
10458;SDS011;5277;48.722;8.736;2023-04-21T13:03:33;2.50;;;2.10;;
10458;SDS011;5277;48.722;8.736;2023-04-21T13:05:58;1.92;;;1.77;;
10458;SDS011;5277;48.722;8.736;2023-04-21T13:08:31;2.50;;;2.10;;
10458;SDS011;5277;48.722;8.736;2023-04-21T13:10:57;2.67;;;2.40;;
10458;SDS011;5277;48.722;8.736;2023-04-21T13:13:23;9.23;;;2.58;;
10458;SDS011;5277;48.722;8.736;2023-04-21T13:15:48;2.55;;;2.33;;
10458;SDS011;5277;48.722;8.736;2023-04-21T13:18:14;2.88;;;2.50;;
10458;SDS011;5277;48.722;8.736;2023-04-21T13:20:39;5.85;;;2.80;;
10458;SDS011;5277;48.722;8.736;2023-04-21T13:23:05;2.65;;;2.45;;
10458;SDS011;5277;48.722;8.736;2023-04-21T13:25:32;2.65;;;2.28;;
10458;SDS011;5277;48.722;8.736;2023-04-21T13:27:58;3.38;;;2.30;;
10458;SDS011;5277;48.722;8.736;2023-04-21T13:30:24;2.35;;;2.15;;
10458;SDS011;5277;48.722;8.736;2023-04-21T13:32:50;3.20;;;2.90;;
10458;SDS011;5277;48.722;8.736;2023-04-21T13:35:16;3.45;;;3.08;;
10458;SDS011;5277;48.722;8.736;2023-04-21T13:37:42;4.07;;;2.85;;
10458;SDS011;5277;48.722;8.736;2023-04-21T13:40:08;3.80;;;2.72;;
10458;SDS011;5277;48.722;8.736;2023-04-21T13:42:38;3.75;;;2.50;;
10458;SDS011;5277;48.722;8.736;2023-04-21T13:45:04;4.68;;;2.97;;
10458;SDS011;5277;48.722;8.736;2023-04-21T13:47:31;3.65;;;2.92;;
10458;SDS011;5277;48.722;8.736;2023-04-21T13:49:57;2.60;;;2.40;;
10458;SDS011;5277;48.722;8.736;2023-04-21T13:52:22;5.20;;;2.85;;
10458;SDS011;5277;48.722;8.736;2023-04-21T13:54:49;3.40;;;3.05;;
10458;SDS011;5277;48.722;8.736;2023-04-21T13:57:16;2.95;;;2.65;;
10458;SDS011;5277;48.722;8.736;2023-04-21T13:59:41;3.28;;;2.42;;
10458;SDS011;5277;48.722;8.736;2023-04-21T14:02:07;3.92;;;2.97;;
10458;SDS011;5277;48.722;8.736;2023-04-21T14:04:33;8.80;;;3.30;;
10458;SDS011;5277;48.722;8.736;2023-04-21T14:07:00;3.42;;;2.45;;
10458;SDS011;5277;48.722;8.736;2023-04-21T14:09:26;3.25;;;2.10;;
10458;SDS011;5277;48.722;8.736;2023-04-21T14:11:52;3.35;;;2.45;;
10458;SDS011;5277;48.722;8.736;2023-04-21T14:14:17;2.67;;;2.10;;
10458;SDS011;5277;48.722;8.736;2023-04-21T14:16:43;5.50;;;2.50;;
10458;SDS011;5277;48.722;8.736;2023-04-21T14:19:13;3.40;;;2.45;;
10458;SDS011;5277;48.722;8.736;2023-04-21T14:21:39;2.30;;;2.03;;
10458;SDS011;5277;48.722;8.736;2023-04-21T14:24:05;2.88;;;2.58;;
10458;SDS011;5277;48.722;8.736;2023-04-21T14:26:31;4.97;;;2.50;;
10458;SDS011;5277;48.722;8.736;2023-04-21T14:28:56;2.33;;;2.13;;
10458;SDS011;5277;48.722;8.736;2023-04-21T14:31:23;6.38;;;2.80;;
10458;SDS011;5277;48.722;8.736;2023-04-21T14:33:49;5.65;;;2.47;;
10458;SDS011;5277;48.722;8.736;2023-04-21T14:36:15;4.53;;;3.05;;
10458;SDS011;5277;48.722;8.736;2023-04-21T14:38:40;11.18;;;2.80;;
10458;SDS011;5277;48.722;8.736;2023-04-21T14:41:07;4.53;;;2.60;;
10458;SDS011;5277;48.722;8.736;2023-04-21T14:43:33;3.83;;;1.75;;
10458;SDS011;5277;48.722;8.736;2023-04-21T14:45:58;5.28;;;2.25;;
10458;SDS011;5277;48.722;8.736;2023-04-21T14:48:25;2.53;;;2.10;;
10458;SDS011;5277;48.722;8.736;2023-04-21T14:50:51;3.85;;;2.13;;
10458;SDS011;5277;48.722;8.736;2023-04-21T14:53:17;4.30;;;2.20;;
10458;SDS011;5277;48.722;8.736;2023-04-21T14:55:42;2.90;;;1.90;;
10458;SDS011;5277;48.722;8.736;2023-04-21T14:58:08;2.88;;;2.00;;
10458;SDS011;5277;48.722;8.736;2023-04-21T15:00:34;4.70;;;1.88;;
10458;SDS011;5277;48.722;8.736;2023-04-21T15:03:00;2.10;;;1.90;;
10458;SDS011;5277;48.722;8.736;2023-04-21T15:05:26;2.53;;;1.88;;
10458;SDS011;5277;48.722;8.736;2023-04-21T15:07:53;3.22;;;1.80;;
10458;SDS011;5277;48.722;8.736;2023-04-21T15:10:18;3.70;;;1.70;;
10458;SDS011;5277;48.722;8.736;2023-04-21T15:12:44;4.40;;;2.00;;
10458;SDS011;5277;48.722;8.736;2023-04-21T15:15:10;2.95;;;1.50;;